sensor_id;sensor_type;location;lat;lon;timestamp;P1;durP1;ratioP1;P2;durP2;ratioP2
17496;SDS011;62150;43.582;1.456;2023-02-04T06:37:41;12.97;;;5.43;;
17496;SDS011;62150;43.582;1.456;2023-02-04T06:40:09;10.77;;;5.20;;
17496;SDS011;62150;43.582;1.456;2023-02-04T06:42:37;10.97;;;4.93;;
17496;SDS011;62150;43.582;1.456;2023-02-04T06:45:05;10.67;;;4.83;;
17496;SDS011;62150;43.582;1.456;2023-02-04T06:47:33;12.03;;;5.17;;
17496;SDS011;62150;43.582;1.456;2023-02-04T06:50:01;11.70;;;5.40;;
17496;SDS011;62150;43.582;1.456;2023-02-04T06:52:28;11.27;;;5.63;;
17496;SDS011;62150;43.582;1.456;2023-02-04T06:54:57;13.03;;;5.60;;
17496;SDS011;62150;43.582;1.456;2023-02-04T06:57:24;10.63;;;5.00;;
17496;SDS011;62150;43.582;1.456;2023-02-04T06:59:52;11.67;;;5.10;;
17496;SDS011;62150;43.582;1.456;2023-02-04T07:02:19;11.90;;;5.37;;
17496;SDS011;62150;43.582;1.456;2023-02-04T07:04:47;11.60;;;5.27;;
17496;SDS011;62150;43.582;1.456;2023-02-04T07:07:15;10.60;;;5.10;;
17496;SDS011;62150;43.582;1.456;2023-02-04T07:09:42;12.00;;;5.37;;
17496;SDS011;62150;43.582;1.456;2023-02-04T07:12:11;13.50;;;5.67;;
17496;SDS011;62150;43.582;1.456;2023-02-04T07:14:38;13.40;;;5.60;;
17496;SDS011;62150;43.582;1.456;2023-02-04T07:17:06;10.50;;;5.10;;
17496;SDS011;62150;43.582;1.456;2023-02-04T07:19:33;11.30;;;5.30;;
17496;SDS011;62150;43.582;1.456;2023-02-04T07:22:01;13.23;;;5.87;;
17496;SDS011;62150;43.582;1.456;2023-02-04T07:24:28;11.77;;;5.63;;
17496;SDS011;62150;43.582;1.456;2023-02-04T07:26:56;14.63;;;5.63;;
17496;SDS011;62150;43.582;1.456;2023-02-04T07:29:25;11.47;;;5.57;;
17496;SDS011;62150;43.582;1.456;2023-02-04T07:31:52;11.07;;;4.87;;
17496;SDS011;62150;43.582;1.456;2023-02-04T07:34:20;11.47;;;5.30;;
17496;SDS011;62150;43.582;1.456;2023-02-04T07:36:47;12.27;;;5.70;;
17496;SDS011;62150;43.582;1.456;2023-02-04T07:39:15;13.23;;;6.30;;
17496;SDS011;62150;43.582;1.456;2023-02-04T07:41:43;12.03;;;5.87;;
17496;SDS011;62150;43.582;1.456;2023-02-04T07:44:10;12.33;;;5.70;;
17496;SDS011;62150;43.582;1.456;2023-02-04T07:46:39;11.70;;;5.53;;
17496;SDS011;62150;43.582;1.456;2023-02-04T07:49:07;11.53;;;5.40;;
17496;SDS011;62150;43.582;1.456;2023-02-04T07:51:34;10.50;;;5.40;;
17496;SDS011;62150;43.582;1.456;2023-02-04T07:54:02;13.00;;;5.57;;
17496;SDS011;62150;43.582;1.456;2023-02-04T07:56:29;10.43;;;5.50;;
17496;SDS011;62150;43.582;1.456;2023-02-04T07:58:57;12.77;;;6.00;;
17496;SDS011;62150;43.582;1.456;2023-02-04T08:01:24;11.77;;;5.57;;
17496;SDS011;62150;43.582;1.456;2023-02-04T08:03:53;13.60;;;6.07;;
17496;SDS011;62150;43.582;1.456;2023-02-04T08:06:21;13.73;;;6.00;;
17496;SDS011;62150;43.582;1.456;2023-02-04T08:08:51;14.10;;;6.47;;
17496;SDS011;62150;43.582;1.456;2023-02-04T08:11:19;12.50;;;6.03;;
17496;SDS011;62150;43.582;1.456;2023-02-04T08:13:46;13.97;;;6.90;;
17496;SDS011;62150;43.582;1.456;2023-02-04T08:16:14;12.47;;;6.50;;
17496;SDS011;62150;43.582;1.456;2023-02-04T08:18:41;12.87;;;6.67;;
17496;SDS011;62150;43.582;1.456;2023-02-04T08:21:10;15.00;;;7.63;;
17496;SDS011;62150;43.582;1.456;2023-02-04T08:23:38;13.17;;;6.47;;
17496;SDS011;62150;43.582;1.456;2023-02-04T08:26:06;14.27;;;6.97;;
17496;SDS011;62150;43.582;1.456;2023-02-04T08:28:35;13.17;;;6.60;;
17496;SDS011;62150;43.582;1.456;2023-02-04T08:31:05;12.43;;;5.77;;
17496;SDS011;62150;43.582;1.456;2023-02-04T08:33:35;14.03;;;6.60;;
17496;SDS011;62150;43.582;1.456;2023-02-04T08:36:04;13.57;;;6.70;;
17496;SDS011;62150;43.582;1.456;2023-02-04T08:38:34;15.57;;;6.90;;
17496;SDS011;62150;43.582;1.456;2023-02-04T08:41:05;14.97;;;6.87;;
17496;SDS011;62150;43.582;1.456;2023-02-04T08:43:33;12.93;;;6.53;;
17496;SDS011;62150;43.582;1.456;2023-02-04T08:46:01;13.47;;;6.90;;
17496;SDS011;62150;43.582;1.456;2023-02-04T08:48:28;15.73;;;6.63;;
17496;SDS011;62150;43.582;1.456;2023-02-04T08:50:56;12.77;;;6.63;;
17496;SDS011;62150;43.582;1.456;2023-02-04T08:53:23;13.33;;;7.03;;
17496;SDS011;62150;43.582;1.456;2023-02-04T08:55:52;13.63;;;7.07;;
17496;SDS011;62150;43.582;1.456;2023-02-04T08:58:20;13.93;;;7.10;;
17496;SDS011;62150;43.582;1.456;2023-02-04T09:00:47;16.07;;;7.90;;
17496;SDS011;62150;43.582;1.456;2023-02-04T09:03:15;14.47;;;7.13;;
17496;SDS011;62150;43.582;1.456;2023-02-04T09:05:42;14.87;;;7.80;;
17496;SDS011;62150;43.582;1.456;2023-02-04T09:08:10;15.70;;;7.30;;
17496;SDS011;62150;43.582;1.456;2023-02-04T09:10:37;15.33;;;7.57;;
17496;SDS011;62150;43.582;1.456;2023-02-04T09:13:06;18.03;;;8.97;;
17496;SDS011;62150;43.582;1.456;2023-02-04T09:15:35;13.57;;;7.37;;
17496;SDS011;62150;43.582;1.456;2023-02-04T09:18:03;16.90;;;8.90;;
17496;SDS011;62150;43.582;1.456;2023-02-04T09:20:38;14.30;;;7.97;;
17496;SDS011;62150;43.582;1.456;2023-02-04T09:23:06;14.87;;;7.93;;
17496;SDS011;62150;43.582;1.456;2023-02-04T09:25:36;14.67;;;9.03;;
17496;SDS011;62150;43.582;1.456;2023-02-04T09:28:05;15.37;;;7.73;;
17496;SDS011;62150;43.582;1.456;2023-02-04T09:30:35;15.77;;;7.80;;
17496;SDS011;62150;43.582;1.456;2023-02-04T09:33:02;16.20;;;8.40;;
17496;SDS011;62150;43.582;1.456;2023-02-04T09:35:30;14.47;;;8.70;;
17496;SDS011;62150;43.582;1.456;2023-02-04T09:37:58;16.43;;;8.40;;
17496;SDS011;62150;43.582;1.456;2023-02-04T09:40:26;15.50;;;7.77;;
17496;SDS011;62150;43.582;1.456;2023-02-04T09:42:56;17.50;;;9.63;;
17496;SDS011;62150;43.582;1.456;2023-02-04T09:45:26;15.60;;;9.40;;
17496;SDS011;62150;43.582;1.456;2023-02-04T09:47:55;15.53;;;8.40;;
17496;SDS011;62150;43.582;1.456;2023-02-04T09:50:25;15.73;;;8.30;;
17496;SDS011;62150;43.582;1.456;2023-02-04T09:52:56;15.80;;;8.50;;
17496;SDS011;62150;43.582;1.456;2023-02-04T09:55:27;16.57;;;8.33;;
17496;SDS011;62150;43.582;1.456;2023-02-04T09:57:57;15.67;;;7.93;;
17496;SDS011;62150;43.582;1.456;2023-02-04T10:00:27;14.77;;;7.63;;
17496;SDS011;62150;43.582;1.456;2023-02-04T10:02:56;16.40;;;8.10;;
17496;SDS011;62150;43.582;1.456;2023-02-04T10:05:27;17.87;;;8.87;;
17496;SDS011;62150;43.582;1.456;2023-02-04T10:07:56;16.67;;;8.57;;
17496;SDS011;62150;43.582;1.456;2023-02-04T10:10:25;19.67;;;10.30;;
17496;SDS011;62150;43.582;1.456;2023-02-04T10:12:55;16.17;;;8.60;;
17496;SDS011;62150;43.582;1.456;2023-02-04T10:15:24;16.37;;;8.57;;
17496;SDS011;62150;43.582;1.456;2023-02-04T10:17:54;14.67;;;8.00;;
17496;SDS011;62150;43.582;1.456;2023-02-04T10:20:27;14.27;;;7.60;;
17496;SDS011;62150;43.582;1.456;2023-02-04T10:22:54;15.27;;;7.97;;
17496;SDS011;62150;43.582;1.456;2023-02-04T10:25:22;15.10;;;7.83;;
17496;SDS011;62150;43.582;1.456;2023-02-04T10:27:52;15.67;;;8.67;;
17496;SDS011;62150;43.582;1.456;2023-02-04T10:30:22;13.87;;;7.40;;
17496;SDS011;62150;43.582;1.456;2023-02-04T10:32:52;14.17;;;7.40;;
17496;SDS011;62150;43.582;1.456;2023-02-04T10:35:20;14.23;;;7.63;;
17496;SDS011;62150;43.582;1.456;2023-02-04T10:38:00;17.80;;;8.97;;
17496;SDS011;62150;43.582;1.456;2023-02-04T10:40:30;15.60;;;7.73;;
17496;SDS011;62150;43.582;1.456;2023-02-04T10:42:58;15.17;;;8.10;;
17496;SDS011;62150;43.582;1.456;2023-02-04T10:45:33;16.27;;;7.23;;
17496;SDS011;62150;43.582;1.456;2023-02-04T10:48:02;12.87;;;6.07;;
17496;SDS011;62150;43.582;1.456;2023-02-04T10:50:32;13.97;;;6.67;;
17496;SDS011;62150;43.582;1.456;2023-02-04T10:52:59;12.80;;;5.60;;
17496;SDS011;62150;43.582;1.456;2023-02-04T10:55:46;12.90;;;6.73;;
17496;SDS011;62150;43.582;1.456;2023-02-04T10:58:16;13.27;;;7.20;;
17496;SDS011;62150;43.582;1.456;2023-02-04T11:00:49;12.53;;;5.87;;
17496;SDS011;62150;43.582;1.456;2023-02-04T11:03:20;12.97;;;6.80;;
17496;SDS011;62150;43.582;1.456;2023-02-04T11:05:49;14.40;;;7.53;;
17496;SDS011;62150;43.582;1.456;2023-02-04T11:08:19;14.50;;;6.57;;
17496;SDS011;62150;43.582;1.456;2023-02-04T11:10:49;13.00;;;5.97;;
17496;SDS011;62150;43.582;1.456;2023-02-04T11:13:20;14.87;;;6.77;;
17496;SDS011;62150;43.582;1.456;2023-02-04T11:15:54;12.47;;;6.10;;
17496;SDS011;62150;43.582;1.456;2023-02-04T11:18:44;12.60;;;6.43;;
17496;SDS011;62150;43.582;1.456;2023-02-04T11:21:13;10.73;;;5.33;;
17496;SDS011;62150;43.582;1.456;2023-02-04T11:23:47;12.63;;;5.80;;
17496;SDS011;62150;43.582;1.456;2023-02-04T11:26:16;11.40;;;5.70;;
17496;SDS011;62150;43.582;1.456;2023-02-04T11:29:06;11.97;;;6.23;;
17496;SDS011;62150;43.582;1.456;2023-02-04T11:32:03;12.40;;;6.30;;
17496;SDS011;62150;43.582;1.456;2023-02-04T11:34:44;11.17;;;5.43;;
17496;SDS011;62150;43.582;1.456;2023-02-04T11:37:18;12.63;;;6.30;;
17496;SDS011;62150;43.582;1.456;2023-02-04T11:40:01;11.97;;;6.00;;
17496;SDS011;62150;43.582;1.456;2023-02-04T11:43:01;12.53;;;6.50;;
17496;SDS011;62150;43.582;1.456;2023-02-04T11:45:35;12.23;;;6.10;;
17496;SDS011;62150;43.582;1.456;2023-02-04T11:48:12;13.13;;;6.60;;
17496;SDS011;62150;43.582;1.456;2023-02-04T11:50:53;12.50;;;6.17;;
17496;SDS011;62150;43.582;1.456;2023-02-04T11:53:23;13.20;;;6.40;;
17496;SDS011;62150;43.582;1.456;2023-02-04T11:55:53;11.03;;;5.30;;
17496;SDS011;62150;43.582;1.456;2023-02-04T11:58:24;12.17;;;6.00;;
17496;SDS011;62150;43.582;1.456;2023-02-04T12:00:55;10.53;;;5.17;;
17496;SDS011;62150;43.582;1.456;2023-02-04T12:03:23;11.10;;;5.60;;
17496;SDS011;62150;43.582;1.456;2023-02-04T12:05:55;13.13;;;5.60;;
17496;SDS011;62150;43.582;1.456;2023-02-04T12:08:24;12.97;;;5.73;;
17496;SDS011;62150;43.582;1.456;2023-02-04T12:11:04;10.70;;;5.30;;
17496;SDS011;62150;43.582;1.456;2023-02-04T12:13:47;11.73;;;5.27;;
17496;SDS011;62150;43.582;1.456;2023-02-04T12:16:16;10.43;;;4.87;;
17496;SDS011;62150;43.582;1.456;2023-02-04T12:18:44;11.17;;;5.37;;
17496;SDS011;62150;43.582;1.456;2023-02-04T12:21:13;11.07;;;5.33;;
17496;SDS011;62150;43.582;1.456;2023-02-04T12:23:41;9.77;;;4.87;;
17496;SDS011;62150;43.582;1.456;2023-02-04T12:26:08;11.30;;;5.37;;
17496;SDS011;62150;43.582;1.456;2023-02-04T12:28:36;11.20;;;5.40;;
17496;SDS011;62150;43.582;1.456;2023-02-04T12:31:04;10.83;;;4.90;;
17496;SDS011;62150;43.582;1.456;2023-02-04T12:33:31;9.73;;;4.93;;
17496;SDS011;62150;43.582;1.456;2023-02-04T12:35:59;10.80;;;4.43;;
17496;SDS011;62150;43.582;1.456;2023-02-04T12:38:27;10.20;;;4.57;;
17496;SDS011;62150;43.582;1.456;2023-02-04T12:40:55;11.60;;;5.17;;
17496;SDS011;62150;43.582;1.456;2023-02-04T12:43:23;10.97;;;4.63;;
17496;SDS011;62150;43.582;1.456;2023-02-04T12:45:51;10.37;;;4.60;;
17496;SDS011;62150;43.582;1.456;2023-02-04T12:48:18;12.00;;;4.67;;
17496;SDS011;62150;43.582;1.456;2023-02-04T12:50:46;10.33;;;4.60;;
17496;SDS011;62150;43.582;1.456;2023-02-04T12:53:13;10.20;;;4.20;;
17496;SDS011;62150;43.582;1.456;2023-02-04T12:55:42;11.73;;;4.80;;
17496;SDS011;62150;43.582;1.456;2023-02-04T12:58:10;10.23;;;4.80;;
17496;SDS011;62150;43.582;1.456;2023-02-04T13:00:38;10.43;;;4.40;;
17496;SDS011;62150;43.582;1.456;2023-02-04T13:03:06;10.67;;;4.63;;
17496;SDS011;62150;43.582;1.456;2023-02-04T13:05:34;10.23;;;4.57;;
17496;SDS011;62150;43.582;1.456;2023-02-04T13:08:01;10.37;;;4.37;;
17496;SDS011;62150;43.582;1.456;2023-02-04T13:10:29;12.07;;;5.07;;
17496;SDS011;62150;43.582;1.456;2023-02-04T13:12:58;10.47;;;4.30;;
17496;SDS011;62150;43.582;1.456;2023-02-04T13:15:26;9.00;;;4.40;;
17496;SDS011;62150;43.582;1.456;2023-02-04T13:17:54;10.53;;;5.00;;
17496;SDS011;62150;43.582;1.456;2023-02-04T13:20:21;10.67;;;5.10;;
17496;SDS011;62150;43.582;1.456;2023-02-04T13:22:49;9.47;;;4.30;;
17496;SDS011;62150;43.582;1.456;2023-02-04T13:25:16;7.63;;;3.50;;
17496;SDS011;62150;43.582;1.456;2023-02-04T13:27:44;10.13;;;4.53;;
17496;SDS011;62150;43.582;1.456;2023-02-04T13:30:13;11.00;;;5.30;;
17496;SDS011;62150;43.582;1.456;2023-02-04T13:32:41;9.30;;;4.10;;
17496;SDS011;62150;43.582;1.456;2023-02-04T13:35:09;8.70;;;4.30;;
17496;SDS011;62150;43.582;1.456;2023-02-04T13:37:36;8.27;;;3.80;;
17496;SDS011;62150;43.582;1.456;2023-02-04T13:40:04;8.43;;;4.00;;
17496;SDS011;62150;43.582;1.456;2023-02-04T13:42:33;8.93;;;3.97;;
17496;SDS011;62150;43.582;1.456;2023-02-04T13:45:01;9.73;;;4.20;;
17496;SDS011;62150;43.582;1.456;2023-02-04T13:47:30;10.27;;;4.30;;
17496;SDS011;62150;43.582;1.456;2023-02-04T13:49:57;7.57;;;3.57;;
17496;SDS011;62150;43.582;1.456;2023-02-04T13:52:25;8.17;;;3.80;;
17496;SDS011;62150;43.582;1.456;2023-02-04T13:54:53;8.20;;;3.77;;
17496;SDS011;62150;43.582;1.456;2023-02-04T13:57:21;8.17;;;3.70;;
17496;SDS011;62150;43.582;1.456;2023-02-04T13:59:48;8.27;;;3.83;;
17496;SDS011;62150;43.582;1.456;2023-02-04T14:02:16;9.93;;;4.20;;
17496;SDS011;62150;43.582;1.456;2023-02-04T14:04:46;7.03;;;3.60;;
17496;SDS011;62150;43.582;1.456;2023-02-04T14:07:14;8.00;;;3.60;;
17496;SDS011;62150;43.582;1.456;2023-02-04T14:09:41;7.50;;;3.33;;
17496;SDS011;62150;43.582;1.456;2023-02-04T14:12:08;7.63;;;3.60;;
17496;SDS011;62150;43.582;1.456;2023-02-04T14:14:36;8.43;;;3.40;;
17496;SDS011;62150;43.582;1.456;2023-02-04T14:17:03;8.73;;;3.70;;
17496;SDS011;62150;43.582;1.456;2023-02-04T14:19:31;8.27;;;3.30;;
17496;SDS011;62150;43.582;1.456;2023-02-04T14:22:00;6.97;;;3.00;;
17496;SDS011;62150;43.582;1.456;2023-02-04T14:24:28;7.37;;;3.63;;
17496;SDS011;62150;43.582;1.456;2023-02-04T14:26:56;7.30;;;3.33;;
17496;SDS011;62150;43.582;1.456;2023-02-04T14:29:25;7.27;;;3.50;;
17496;SDS011;62150;43.582;1.456;2023-02-04T14:31:52;7.13;;;3.00;;
17496;SDS011;62150;43.582;1.456;2023-02-04T14:34:20;8.33;;;3.70;;
17496;SDS011;62150;43.582;1.456;2023-02-04T14:36:47;7.70;;;3.20;;
17496;SDS011;62150;43.582;1.456;2023-02-04T14:39:16;7.70;;;3.20;;
17496;SDS011;62150;43.582;1.456;2023-02-04T14:41:44;7.20;;;3.00;;
17496;SDS011;62150;43.582;1.456;2023-02-04T14:44:11;7.97;;;3.30;;
17496;SDS011;62150;43.582;1.456;2023-02-04T14:46:43;7.60;;;3.30;;
17496;SDS011;62150;43.582;1.456;2023-02-04T14:49:12;6.67;;;3.10;;
17496;SDS011;62150;43.582;1.456;2023-02-04T14:51:39;6.87;;;3.37;;
17496;SDS011;62150;43.582;1.456;2023-02-04T14:54:07;8.70;;;3.50;;
17496;SDS011;62150;43.582;1.456;2023-02-04T14:56:40;10.03;;;3.60;;
17496;SDS011;62150;43.582;1.456;2023-02-04T14:59:08;12.07;;;4.43;;
17496;SDS011;62150;43.582;1.456;2023-02-04T15:01:36;10.70;;;4.00;;
17496;SDS011;62150;43.582;1.456;2023-02-04T15:04:03;6.70;;;3.10;;
17496;SDS011;62150;43.582;1.456;2023-02-04T15:06:31;6.70;;;3.07;;
17496;SDS011;62150;43.582;1.456;2023-02-04T15:08:58;5.77;;;2.87;;
17496;SDS011;62150;43.582;1.456;2023-02-04T15:11:26;5.53;;;2.80;;
17496;SDS011;62150;43.582;1.456;2023-02-04T15:13:57;5.17;;;2.77;;
17496;SDS011;62150;43.582;1.456;2023-02-04T15:16:24;3.67;;;2.30;;
17496;SDS011;62150;43.582;1.456;2023-02-04T15:18:52;5.47;;;2.60;;
17496;SDS011;62150;43.582;1.456;2023-02-04T15:21:19;7.10;;;3.13;;
17496;SDS011;62150;43.582;1.456;2023-02-04T15:23:47;6.70;;;3.00;;
17496;SDS011;62150;43.582;1.456;2023-02-04T15:26:15;6.80;;;2.70;;
17496;SDS011;62150;43.582;1.456;2023-02-04T15:28:42;6.17;;;2.93;;
17496;SDS011;62150;43.582;1.456;2023-02-04T15:31:11;6.33;;;3.30;;
17496;SDS011;62150;43.582;1.456;2023-02-04T15:33:39;7.40;;;3.00;;
17496;SDS011;62150;43.582;1.456;2023-02-04T15:36:06;5.53;;;3.00;;
17496;SDS011;62150;43.582;1.456;2023-02-04T15:38:34;9.73;;;3.87;;
17496;SDS011;62150;43.582;1.456;2023-02-04T15:41:02;6.47;;;3.00;;
17496;SDS011;62150;43.582;1.456;2023-02-04T15:43:29;7.67;;;2.87;;
17496;SDS011;62150;43.582;1.456;2023-02-04T15:45:57;6.67;;;3.10;;
17496;SDS011;62150;43.582;1.456;2023-02-04T15:48:26;7.47;;;3.37;;
17496;SDS011;62150;43.582;1.456;2023-02-04T15:50:54;7.43;;;3.30;;
17496;SDS011;62150;43.582;1.456;2023-02-04T15:53:22;7.97;;;3.50;;
17496;SDS011;62150;43.582;1.456;2023-02-04T15:55:49;9.23;;;4.00;;
17496;SDS011;62150;43.582;1.456;2023-02-04T15:58:17;8.77;;;3.37;;
17496;SDS011;62150;43.582;1.456;2023-02-04T16:00:45;7.87;;;3.60;;
17496;SDS011;62150;43.582;1.456;2023-02-04T16:03:12;8.13;;;3.27;;
17496;SDS011;62150;43.582;1.456;2023-02-04T16:05:41;6.97;;;3.30;;
17496;SDS011;62150;43.582;1.456;2023-02-04T16:08:08;6.27;;;3.20;;
17496;SDS011;62150;43.582;1.456;2023-02-04T16:10:38;9.10;;;3.60;;
17496;SDS011;62150;43.582;1.456;2023-02-04T16:13:06;7.23;;;3.27;;
17496;SDS011;62150;43.582;1.456;2023-02-04T16:15:33;9.33;;;3.60;;
17496;SDS011;62150;43.582;1.456;2023-02-04T16:18:01;8.20;;;3.60;;
17496;SDS011;62150;43.582;1.456;2023-02-04T16:20:29;10.30;;;4.30;;
17496;SDS011;62150;43.582;1.456;2023-02-04T16:22:58;8.13;;;3.53;;
17496;SDS011;62150;43.582;1.456;2023-02-04T16:25:27;8.87;;;3.90;;
17496;SDS011;62150;43.582;1.456;2023-02-04T16:27:54;7.93;;;3.87;;
17496;SDS011;62150;43.582;1.456;2023-02-04T16:30:22;9.30;;;3.70;;
17496;SDS011;62150;43.582;1.456;2023-02-04T16:32:49;7.57;;;3.63;;
17496;SDS011;62150;43.582;1.456;2023-02-04T16:35:17;7.97;;;3.73;;
17496;SDS011;62150;43.582;1.456;2023-02-04T16:37:44;8.40;;;3.80;;
17496;SDS011;62150;43.582;1.456;2023-02-04T16:40:13;7.20;;;3.50;;
17496;SDS011;62150;43.582;1.456;2023-02-04T16:42:42;8.23;;;3.40;;
17496;SDS011;62150;43.582;1.456;2023-02-04T16:45:09;7.50;;;3.80;;
17496;SDS011;62150;43.582;1.456;2023-02-04T16:47:37;9.80;;;4.17;;
17496;SDS011;62150;43.582;1.456;2023-02-04T16:50:05;8.07;;;3.80;;
17496;SDS011;62150;43.582;1.456;2023-02-04T16:52:33;8.63;;;3.50;;
17496;SDS011;62150;43.582;1.456;2023-02-04T16:55:00;8.93;;;3.90;;
17496;SDS011;62150;43.582;1.456;2023-02-04T16:57:29;7.93;;;3.57;;
17496;SDS011;62150;43.582;1.456;2023-02-04T16:59:57;7.13;;;3.50;;
17496;SDS011;62150;43.582;1.456;2023-02-04T17:02:24;7.67;;;3.67;;
17496;SDS011;62150;43.582;1.456;2023-02-04T17:04:52;7.80;;;3.63;;
17496;SDS011;62150;43.582;1.456;2023-02-04T17:07:19;9.13;;;3.97;;
17496;SDS011;62150;43.582;1.456;2023-02-04T17:09:47;9.40;;;4.03;;
17496;SDS011;62150;43.582;1.456;2023-02-04T17:12:14;7.17;;;3.30;;
17496;SDS011;62150;43.582;1.456;2023-02-04T17:14:43;9.40;;;4.20;;
17496;SDS011;62150;43.582;1.456;2023-02-04T17:17:11;11.87;;;4.17;;
17496;SDS011;62150;43.582;1.456;2023-02-04T17:19:38;9.50;;;4.20;;
17496;SDS011;62150;43.582;1.456;2023-02-04T17:22:06;11.57;;;4.50;;
17496;SDS011;62150;43.582;1.456;2023-02-04T17:24:33;10.00;;;4.60;;
17496;SDS011;62150;43.582;1.456;2023-02-04T17:27:06;11.60;;;5.67;;
17496;SDS011;62150;43.582;1.456;2023-02-04T17:29:34;11.07;;;5.10;;
17496;SDS011;62150;43.582;1.456;2023-02-04T17:32:03;10.60;;;5.30;;
17496;SDS011;62150;43.582;1.456;2023-02-04T17:34:32;13.37;;;7.10;;
17496;SDS011;62150;43.582;1.456;2023-02-04T17:37:00;15.23;;;8.63;;
17496;SDS011;62150;43.582;1.456;2023-02-04T17:39:27;13.93;;;7.73;;
17496;SDS011;62150;43.582;1.456;2023-02-04T17:41:55;14.23;;;8.00;;
17496;SDS011;62150;43.582;1.456;2023-02-04T17:44:22;12.50;;;6.87;;
17496;SDS011;62150;43.582;1.456;2023-02-04T17:46:50;15.57;;;8.87;;
17496;SDS011;62150;43.582;1.456;2023-02-04T17:49:18;22.53;;;13.07;;
17496;SDS011;62150;43.582;1.456;2023-02-04T17:51:46;21.00;;;13.20;;
17496;SDS011;62150;43.582;1.456;2023-02-04T17:54:13;19.23;;;11.10;;
17496;SDS011;62150;43.582;1.456;2023-02-04T17:56:41;17.93;;;10.07;;
17496;SDS011;62150;43.582;1.456;2023-02-04T17:59:08;21.30;;;12.10;;
17496;SDS011;62150;43.582;1.456;2023-02-04T18:01:36;16.27;;;8.93;;
17496;SDS011;62150;43.582;1.456;2023-02-04T18:04:08;15.50;;;8.63;;
17496;SDS011;62150;43.582;1.456;2023-02-04T18:06:38;13.87;;;7.87;;
17496;SDS011;62150;43.582;1.456;2023-02-04T18:09:10;11.73;;;5.77;;
17496;SDS011;62150;43.582;1.456;2023-02-04T18:11:40;11.23;;;5.60;;
17496;SDS011;62150;43.582;1.456;2023-02-04T18:14:10;11.53;;;5.53;;
17496;SDS011;62150;43.582;1.456;2023-02-04T18:16:41;10.87;;;5.20;;
17496;SDS011;62150;43.582;1.456;2023-02-04T18:19:17;11.00;;;5.07;;
17496;SDS011;62150;43.582;1.456;2023-02-04T18:21:47;10.30;;;5.07;;
17496;SDS011;62150;43.582;1.456;2023-02-04T18:24:17;10.57;;;4.93;;
17496;SDS011;62150;43.582;1.456;2023-02-04T18:26:51;11.17;;;5.10;;
17496;SDS011;62150;43.582;1.456;2023-02-04T18:29:28;11.07;;;5.20;;
17496;SDS011;62150;43.582;1.456;2023-02-04T18:31:59;9.63;;;4.80;;
17496;SDS011;62150;43.582;1.456;2023-02-04T18:34:28;10.33;;;5.17;;
17496;SDS011;62150;43.582;1.456;2023-02-04T18:37:18;10.10;;;5.23;;
17496;SDS011;62150;43.582;1.456;2023-02-04T18:39:54;11.03;;;5.20;;
17496;SDS011;62150;43.582;1.456;2023-02-04T18:42:37;11.77;;;5.27;;
17496;SDS011;62150;43.582;1.456;2023-02-04T18:45:11;11.47;;;5.63;;
17496;SDS011;62150;43.582;1.456;2023-02-04T18:47:45;11.30;;;5.87;;
17496;SDS011;62150;43.582;1.456;2023-02-04T18:50:17;11.83;;;5.90;;
17496;SDS011;62150;43.582;1.456;2023-02-04T18:52:51;11.23;;;5.67;;
17496;SDS011;62150;43.582;1.456;2023-02-04T18:55:21;13.23;;;6.07;;
17496;SDS011;62150;43.582;1.456;2023-02-04T18:57:54;11.73;;;6.07;;
17496;SDS011;62150;43.582;1.456;2023-02-04T19:00:22;13.07;;;6.70;;
17496;SDS011;62150;43.582;1.456;2023-02-04T19:02:54;13.63;;;6.77;;
17496;SDS011;62150;43.582;1.456;2023-02-04T19:05:27;12.50;;;6.40;;
17496;SDS011;62150;43.582;1.456;2023-02-04T19:10:51;12.53;;;7.00;;
17496;SDS011;62150;43.582;1.456;2023-02-04T19:13:21;14.73;;;7.30;;
17496;SDS011;62150;43.582;1.456;2023-02-04T19:15:55;12.53;;;6.60;;
17496;SDS011;62150;43.582;1.456;2023-02-04T19:18:28;13.97;;;7.17;;
17496;SDS011;62150;43.582;1.456;2023-02-04T19:21:09;15.83;;;7.50;;
17496;SDS011;62150;43.582;1.456;2023-02-04T19:23:47;13.37;;;7.20;;
17496;SDS011;62150;43.582;1.456;2023-02-04T19:26:27;14.17;;;7.47;;
17496;SDS011;62150;43.582;1.456;2023-02-04T19:28:59;14.37;;;7.90;;
17496;SDS011;62150;43.582;1.456;2023-02-04T19:31:53;15.13;;;8.10;;
17496;SDS011;62150;43.582;1.456;2023-02-04T19:34:24;14.93;;;7.70;;
17496;SDS011;62150;43.582;1.456;2023-02-04T19:36:54;14.77;;;8.20;;
17496;SDS011;62150;43.582;1.456;2023-02-04T19:39:27;14.60;;;8.10;;
17496;SDS011;62150;43.582;1.456;2023-02-04T19:42:12;15.17;;;7.87;;
17496;SDS011;62150;43.582;1.456;2023-02-04T19:44:54;13.53;;;7.70;;
17496;SDS011;62150;43.582;1.456;2023-02-04T19:47:24;16.33;;;8.50;;
17496;SDS011;62150;43.582;1.456;2023-02-04T19:49:59;13.63;;;7.70;;
17496;SDS011;62150;43.582;1.456;2023-02-04T19:52:41;13.17;;;7.33;;
17496;SDS011;62150;43.582;1.456;2023-02-04T19:58:12;14.00;;;7.90;;
17496;SDS011;62150;43.582;1.456;2023-02-04T20:00:44;14.17;;;8.17;;
17496;SDS011;62150;43.582;1.456;2023-02-04T20:03:20;13.97;;;7.50;;
17496;SDS011;62150;43.582;1.456;2023-02-04T20:05:57;13.37;;;7.87;;
17496;SDS011;62150;43.582;1.456;2023-02-04T20:14:24;12.70;;;7.73;;
17496;SDS011;62150;43.582;1.456;2023-02-04T20:17:14;12.40;;;7.00;;
17496;SDS011;62150;43.582;1.456;2023-02-04T20:19:48;15.50;;;8.10;;
17496;SDS011;62150;43.582;1.456;2023-02-04T20:28:19;12.83;;;7.30;;
17496;SDS011;62150;43.582;1.456;2023-02-04T20:30:54;12.43;;;6.90;;
17496;SDS011;62150;43.582;1.456;2023-02-04T20:39:22;13.70;;;7.23;;
17496;SDS011;62150;43.582;1.456;2023-02-04T20:45:00;14.00;;;7.13;;
17496;SDS011;62150;43.582;1.456;2023-02-04T20:47:37;13.73;;;6.73;;
17496;SDS011;62150;43.582;1.456;2023-02-04T20:53:06;12.90;;;6.93;;
17496;SDS011;62150;43.582;1.456;2023-02-04T20:55:44;13.10;;;6.80;;
17496;SDS011;62150;43.582;1.456;2023-02-04T20:58:14;13.47;;;6.90;;
17496;SDS011;62150;43.582;1.456;2023-02-04T21:00:49;13.93;;;7.60;;
17496;SDS011;62150;43.582;1.456;2023-02-04T21:03:24;14.27;;;6.90;;
17496;SDS011;62150;43.582;1.456;2023-02-04T21:05:54;12.73;;;6.80;;
17496;SDS011;62150;43.582;1.456;2023-02-04T21:08:34;14.20;;;7.30;;
17496;SDS011;62150;43.582;1.456;2023-02-04T21:11:07;12.87;;;7.30;;
17496;SDS011;62150;43.582;1.456;2023-02-04T21:13:35;13.63;;;7.13;;
17496;SDS011;62150;43.582;1.456;2023-02-04T21:16:05;13.73;;;6.83;;
17496;SDS011;62150;43.582;1.456;2023-02-04T21:18:33;13.30;;;6.90;;
17496;SDS011;62150;43.582;1.456;2023-02-04T21:21:01;12.53;;;7.17;;
17496;SDS011;62150;43.582;1.456;2023-02-04T21:23:31;13.53;;;6.73;;
17496;SDS011;62150;43.582;1.456;2023-02-04T21:25:58;12.80;;;6.77;;
17496;SDS011;62150;43.582;1.456;2023-02-04T21:28:26;12.53;;;6.50;;
17496;SDS011;62150;43.582;1.456;2023-02-04T21:30:56;12.23;;;6.47;;
17496;SDS011;62150;43.582;1.456;2023-02-04T21:33:25;12.53;;;6.43;;
17496;SDS011;62150;43.582;1.456;2023-02-04T21:35:53;12.27;;;6.80;;
17496;SDS011;62150;43.582;1.456;2023-02-04T21:38:21;11.33;;;6.10;;
17496;SDS011;62150;43.582;1.456;2023-02-04T21:40:48;12.43;;;6.43;;
17496;SDS011;62150;43.582;1.456;2023-02-04T21:43:16;12.00;;;6.63;;
17496;SDS011;62150;43.582;1.456;2023-02-04T21:45:44;13.20;;;6.90;;
17496;SDS011;62150;43.582;1.456;2023-02-04T21:48:11;12.67;;;6.43;;
17496;SDS011;62150;43.582;1.456;2023-02-04T21:50:41;13.33;;;6.87;;
17496;SDS011;62150;43.582;1.456;2023-02-04T21:53:08;14.03;;;7.07;;
17496;SDS011;62150;43.582;1.456;2023-02-04T21:55:36;12.30;;;6.53;;
17496;SDS011;62150;43.582;1.456;2023-02-04T21:58:04;14.00;;;6.80;;
17496;SDS011;62150;43.582;1.456;2023-02-04T22:00:32;13.37;;;6.80;;